createdAt,value
2018-02-09T00:05:06.640Z,100476
2018-02-09T00:15:08.154Z,100479
2018-02-09T00:25:09.690Z,100476
2018-02-09T00:35:11.216Z,100486
2018-02-09T00:45:12.721Z,100466
2018-02-09T00:55:14.238Z,100476
2018-02-09T01:05:15.775Z,100474
2018-02-09T01:15:17.327Z,100476
2018-02-09T01:25:18.872Z,100462
2018-02-09T01:35:20.424Z,100455
2018-02-09T01:45:21.924Z,100449
2018-02-09T01:55:23.712Z,100445
2018-02-09T02:05:25.236Z,100439
2018-02-09T02:15:26.805Z,100434
2018-02-09T02:25:29.270Z,100427
2018-02-09T02:35:30.760Z,100415
2018-02-09T02:45:32.287Z,100401
2018-02-09T02:55:33.843Z,100389
2018-02-09T03:05:35.569Z,100389
2018-02-09T03:15:37.064Z,100385
2018-02-09T03:25:38.656Z,100384
2018-02-09T03:35:40.207Z,100382
2018-02-09T03:45:41.733Z,100386
2018-02-09T03:55:43.272Z,100377
2018-02-09T04:05:44.793Z,100378
2018-02-09T04:15:46.325Z,100359
2018-02-09T04:25:48.576Z,100350
2018-02-09T04:35:50.178Z,100353
2018-02-09T04:45:52.387Z,100345
2018-02-09T04:55:53.977Z,100352
2018-02-09T05:05:55.504Z,100333
2018-02-09T05:15:57.067Z,100308
2018-02-09T05:25:58.748Z,100309
2018-02-09T05:36:01.190Z,100296
2018-02-09T05:46:02.733Z,100297
2018-02-09T05:56:04.485Z,100296
2018-02-09T06:06:06.102Z,100290
2018-02-09T06:16:07.824Z,100292
2018-02-09T06:26:09.363Z,100284
2018-02-09T06:36:10.940Z,100279
2018-02-09T06:46:12.455Z,100300
2018-02-09T06:56:13.989Z,100294
2018-02-09T07:06:15.528Z,100298
2018-02-09T07:16:17.115Z,100293
2018-02-09T07:26:18.655Z,100284
2018-02-09T07:36:20.190Z,100285
2018-02-09T07:46:21.776Z,100281
2018-02-09T07:56:24.074Z,100258
2018-02-09T08:06:25.689Z,100251
2018-02-09T08:16:27.922Z,100252
2018-02-09T08:26:29.525Z,100257
2018-02-09T08:36:31.047Z,100239
2018-02-09T08:46:32.551Z,100226
2018-02-09T08:56:34.176Z,100250
2018-02-09T09:06:35.754Z,100248
2018-02-09T09:16:44.409Z,100243
2018-02-09T09:26:45.965Z,100236
2018-02-09T09:36:47.603Z,100221
2018-02-09T09:46:49.173Z,100208
2018-02-09T09:56:50.710Z,100204
2018-02-09T10:06:52.240Z,100191
2018-02-09T10:16:53.773Z,100193
2018-02-09T10:26:55.318Z,100181
2018-02-09T10:36:56.973Z,100180
2018-02-09T10:46:59.253Z,100168
2018-02-09T10:57:00.773Z,100161
2018-02-09T11:07:03.068Z,100143
2018-02-09T11:17:04.662Z,100135
2018-02-09T11:27:06.237Z,100118
2018-02-09T11:37:07.908Z,100111
2018-02-09T11:47:10.336Z,100107
2018-02-09T11:57:12.029Z,100088
2018-02-09T12:07:13.604Z,100086
2018-02-09T12:17:15.256Z,100080
2018-02-09T12:27:16.850Z,100070
2018-02-09T12:37:18.524Z,100054
2018-02-09T12:47:20.060Z,100048
2018-02-09T12:57:21.683Z,100049
2018-02-09T13:07:23.232Z,100033
2018-02-09T13:17:24.934Z,100018
2018-02-09T13:27:27.290Z,100008
2018-02-09T13:37:33.630Z,100009
2018-02-09T13:47:35.157Z,100014
2018-02-09T13:57:37.505Z,100020
2018-02-09T14:07:39.012Z,99997
2018-02-09T14:17:42.232Z,100001
2018-02-09T14:27:43.763Z,100001
2018-02-09T14:37:45.351Z,99999
2018-02-09T14:47:46.861Z,99991
2018-02-09T14:57:48.490Z,99995
2018-02-09T15:07:50.203Z,99990
2018-02-09T15:17:51.772Z,99997
2018-02-09T15:27:53.664Z,99985
2018-02-09T15:37:55.240Z,99987
2018-02-09T15:47:56.837Z,99982
2018-02-09T15:57:58.385Z,99982
2018-02-09T16:07:59.986Z,99986
2018-02-09T16:18:01.569Z,99988
2018-02-09T16:28:03.108Z,100002
2018-02-09T16:38:04.869Z,99993
2018-02-09T16:48:06.481Z,100003
2018-02-09T16:58:08.101Z,99996
2018-02-09T17:08:09.659Z,100013
2018-02-09T17:18:11.169Z,100018
2018-02-09T17:28:12.699Z,100024
2018-02-09T17:38:14.270Z,100029
2018-02-09T17:48:15.812Z,100030
2018-02-09T17:58:17.313Z,100038
2018-02-09T18:08:19.664Z,100032
2018-02-09T18:18:21.206Z,100030
2018-02-09T18:28:22.956Z,100041
2018-02-09T18:38:25.429Z,100041
2018-02-09T18:48:27.159Z,100043
2018-02-09T18:58:29.488Z,100043
2018-02-09T19:08:31.788Z,100044
2018-02-09T19:18:33.600Z,100044
2018-02-09T19:28:35.913Z,100042
2018-02-09T19:38:38.272Z,100038
2018-02-09T19:48:39.821Z,100042
2018-02-09T19:58:41.420Z,100044
2018-02-09T20:08:43.038Z,100053
2018-02-09T20:18:45.328Z,100051
2018-02-09T20:28:46.920Z,100060
2018-02-09T20:38:48.581Z,100061
2018-02-09T20:48:50.940Z,100056
2018-02-09T20:58:52.554Z,100046
2018-02-09T21:08:54.412Z,100055
2018-02-09T21:18:55.928Z,100059
2018-02-09T21:28:57.598Z,100066
2018-02-09T21:39:00.086Z,100064
2018-02-09T21:49:01.794Z,100049
2018-02-09T21:59:03.519Z,100058
2018-02-09T22:09:05.083Z,100057
2018-02-09T22:19:06.671Z,100070
2018-02-09T22:29:08.220Z,100086
2018-02-09T22:39:09.838Z,100085
2018-02-09T22:49:12.157Z,100083
2018-02-09T22:59:14.487Z,100067
2018-02-09T23:09:16.070Z,100063
2018-02-09T23:19:18.404Z,100074
2018-02-09T23:29:19.948Z,100068
2018-02-09T23:39:21.508Z,100070
2018-02-09T23:49:23.062Z,100076
2018-02-09T23:59:24.749Z,100086
